Data for 04/20/2013

Time Sea-Level Adjusted Pressure Absolute Pressure Temperature Relative Humidity Dew Point   
(mb) (inHg) (mb) (inHg) (C) (F) (%) (C) (F)
00:05 1014 29.94 844 24.92 3.4 38.1 84 0.9 33.6
00:10 1014 29.94 844 24.92 3.6 38.5 81 0.7 33.2
00:15 1014 29.94 844 24.92 3.7 38.7 81 0.7 33.3
00:20 1014 29.94 844 24.92 3.9 39.1 79 0.6 33.1
00:25 1014 29.94 844 24.92 4.1 39.4 79 0.8 33.5
00:30 1014 29.94 844 24.92 4.1 39.5 82 1.3 34.4
00:35 1014 29.94 844 24.92 4.1 39.4 77 0.4 32.7
00:40 1014 29.94 844 24.92 4.2 39.6 77 0.5 32.9
00:45 1014 29.94 844 24.92 4.2 39.6 76 0.4 32.8
00:50 1014 29.94 844 24.92 4.4 39.9 73 0 32
00:55 1014 29.94 844 24.92 4.7 40.4 72 0 32
01:00 1014 29.94 844 24.92 4.9 40.8 71 0.2 32.3
01:05 1014 29.94 844 24.92 4.9 40.8 73 0.4 32.7
01:10 1014 29.94 844 24.92 4.7 40.5 73 0.2 32.4
01:15 1014 29.94 844 24.92 4.7 40.4 74 0.4 32.7
01:20 1014 29.94 844 24.92 4.6 40.3 73 0.2 32.3
01:25 1014 29.94 844 24.92 4.6 40.4 73 0.2 32.4
01:30 1014 29.94 844 24.92 4.7 40.5 72 0.1 32.1
01:35 1014 29.94 844 24.92 4.7 40.5 73 0.3 32.5
01:40 1014 29.94 844 24.92 4.7 40.4 76 0.8 33.5
01:45 1014 29.94 844 24.92 4.3 39.8 80 1.1 34
01:50 1014 29.94 844 24.92 4 39.2 79 0.6 33.2
01:55 1014 29.94 844 24.92 4.1 39.3 77 0.4 32.8
02:00 1014 29.94 844 24.92 4.5 40.1 74 0.3 32.5
02:05 1014 29.94 844 24.92 4.7 40.4 71 -0.1 31.8
02:10 1014 29.94 844 24.92 4.7 40.5 72 0.1 32.1
02:15 1014 29.94 844 24.92 4.8 40.6 72 0.2 32.3
02:20 1014 29.94 844 24.92 4.7 40.5 74 0.5 32.9
02:25 1014 29.94 844 24.92 4.7 40.4 74 0.5 32.9
02:30 1014 29.94 843 24.89 4.6 40.2 75 0.5 32.8
02:35 1014 29.94 843 24.89 4.5 40.2 75 0.4 32.8
02:40 1014 29.94 843 24.89 4.6 40.2 73 0.2 32.3
02:45 1014 29.94 843 24.89 4.5 40.2 75 0.5 32.9
02:50 1014 29.94 843 24.89 4.6 40.2 74 0.3 32.5
02:55 1014 29.94 843 24.89 4.6 40.2 75 0.6 33
03:00 1014 29.94 843 24.89 4.5 40.1 75 0.4 32.7
03:05 1014 29.94 843 24.89 4.5 40.1 75 0.5 32.9
03:10 1014 29.94 843 24.89 4.4 40 75 0.3 32.6
03:15 1014 29.94 844 24.92 4.5 40 74 0.2 32.4
03:20 1014 29.94 844 24.92 4.5 40 77 0.7 33.3
03:25 1014 29.94 844 24.92 4.3 39.8 79 1 33.7
03:30 1014 29.94 844 24.92 4.1 39.5 79 0.8 33.4
03:35 1014 29.94 844 24.92 3.9 39 80 0.7 33.3
03:40 1014 29.94 844 24.92 3.8 38.9 81 0.8 33.5
03:45 1014 29.94 844 24.92 3.8 38.8 76 -0 32
03:50 1015 29.97 844 24.92 3.8 38.8 78 0.3 32.5
03:55 1015 29.97 844 24.92 3.7 38.7 79 0.4 32.8
04:00 1015 29.97 844 24.92 3.6 38.5 80 0.6 33
04:05 1015 29.97 844 24.92 3.5 38.3 77 -0.2 31.7
04:10 1015 29.97 844 24.92 3.6 38.4 77 -0.1 31.9
04:15 1015 29.97 844 24.92 3.5 38.4 79 0.2 32.4
04:20 1015 29.97 844 24.92 3.5 38.3 80 0.4 32.8
04:25 1015 29.97 844 24.92 3.6 38.4 80 0.5 32.9
04:30 1015 29.97 844 24.92 3.6 38.5 81 0.6 33
04:35 1015 29.97 844 24.92 3.6 38.5 78 0.1 32.3
04:40 1015 29.97 844 24.92 3.7 38.7 79 0.4 32.7
04:45 1015 29.97 844 24.92 3.8 38.8 76 0 32
04:50 1015 29.97 844 24.92 3.9 38.9 76 -0.1 31.9
04:55 1015 29.97 844 24.92 3.9 39 76 0 32.1
05:00 1015 29.97 844 24.92 3.9 39 76 0.1 32.2
05:05 1015 29.97 844 24.92 3.9 39.1 76 0.1 32.2
05:10 1015 29.97 844 24.92 3.9 39.1 78 0.4 32.6
05:15 1015 29.97 844 24.92 3.9 38.9 78 0.3 32.5
05:20 1015 29.97 844 24.92 3.8 38.9 78 0.3 32.6
05:25 1015 29.97 844 24.92 3.8 38.9 79 0.4 32.8
05:30 1015 29.97 844 24.92 3.8 38.8 79 0.5 32.9
05:35 1015 29.97 844 24.92 3.8 38.8 79 0.4 32.8
05:40 1015 29.97 844 24.92 3.4 38.2 80 0.3 32.6
05:45 1015 29.97 844 24.92 3.4 38.1 79 0.2 32.3
05:50 1015 29.97 844 24.92 3.5 38.2 78 0 32.1
05:55 1015 29.97 844 24.92 3.5 38.3 78 0.1 32.1
06:00 1015 29.97 844 24.92 3.5 38.3 80 0.3 32.6
06:05 1015 29.97 844 24.92 3.7 38.6 78 0.2 32.4
06:10 1015 29.97 844 24.92 3.7 38.7 78 0.3 32.6
06:15 1015 29.97 844 24.92 3.7 38.7 79 0.4 32.7
06:20 1015 29.97 845 24.95 3.8 38.8 79 0.4 32.8
06:25 1015 29.97 845 24.95 3.7 38.7 78 0.2 32.4
06:30 1015 29.97 845 24.95 3.7 38.6 79 0.3 32.6
06:35 1015 29.97 845 24.95 3.7 38.6 79 0.4 32.7
06:40 1015 29.97 845 24.95 3.7 38.7 78 0.3 32.6
06:45 1015 29.97 844 24.92 3.8 38.8 79 0.5 32.9
06:50 1015 29.97 844 24.92 3.9 39 77 0.3 32.5
06:55 1015 29.97 844 24.92 4.3 39.7 75 0.2 32.4
07:00 1015 29.97 844 24.92 4.5 40.2 71 -0.2 31.6
07:05 1015 29.97 844 24.92 4.7 40.5 70 -0.3 31.5
07:10 1015 29.97 844 24.92 4.9 40.8 68 -0.4 31.2
07:15 1015 29.97 844 24.92 5.1 41.2 62 -1.5 29.3
07:20 1015 29.97 844 24.92 5.3 41.6 64 -0.9 30.4
07:25 1015 29.97 844 24.92 5.3 41.6 64 -0.9 30.4
07:30 1015 29.97 844 24.92 5.4 41.7 66 -0.5 31.1
07:35 1015 29.97 844 24.92 5.2 41.3 71 0.4 32.7
07:40 1015 29.97 844 24.92 5 41 69 -0.2 31.7
07:45 1015 29.97 844 24.92 5.2 41.4 67 -0.3 31.4
07:50 1015 29.97 844 24.92 5.4 41.6 69 0.1 32.2
07:55 1015 29.97 844 24.92 5.3 41.6 68 0 32.1
08:00 1015 29.97 844 24.92 5.7 42.3 69 0.6 33.1
08:05 1015 29.97 844 24.92 6.1 43 66 0.2 32.4
08:10 1015 29.97 844 24.92 6.4 43.5 65 0.3 32.6
08:15 1015 29.97 844 24.92 6.4 43.6 64 0.1 32.1
08:20 1015 29.97 844 24.92 6.8 44.2 62 0.1 32.2
08:25 1015 29.97 844 24.92 6.8 44.2 62 0 32.1
08:30 1015 29.97 845 24.95 7.1 44.8 60 -0.2 31.7
08:35 1015 29.97 845 24.95 7.6 45.7 58 -0.1 31.8
08:40 1015 29.97 845 24.95 7.8 46 56 -0.5 31.1
08:45 1015 29.97 845 24.95 7.9 46.2 56 -0.4 31.3
08:50 1015 29.97 845 24.95 8.1 46.6 54 -0.7 30.7
08:55 1015 29.97 845 24.95 8.4 47.1 53 -0.6 30.9
09:00 1015 29.97 845 24.95 8.2 46.8 52 -1 30.3
09:05 1015 29.97 845 24.95 8.2 46.7 53 -0.9 30.4
09:10 1015 29.97 845 24.95 8.8 47.8 49 -1.2 29.8
09:15 1015 29.97 845 24.95 8.8 47.8 46 -2.1 28.3
09:20 1015 29.97 844 24.92 8.6 47.5 46 -2.2 28
09:25 1015 29.97 844 24.92 8.8 47.8 45 -2.6 27.4
09:30 1015 29.97 844 24.92 9.2 48.5 42 -3 26.7
09:35 1015 29.97 844 24.92 9.4 48.9 42 -2.7 27.1
09:40 1015 29.97 844 24.92 9.8 49.6 43 -2.3 27.9
09:45 1015 29.97 844 24.92 9.7 49.4 43 -2.3 27.9
09:50 1015 29.97 844 24.92 9.2 48.5 44 -2.3 27.9
09:55 1015 29.97 844 24.92 8.7 47.7 45 -2.4 27.6
10:00 1015 29.97 844 24.92 8.5 47.3 46 -2.3 27.9
10:05 1015 29.97 844 24.92 8.5 47.3 49 -1.5 29.2
10:10 1015 29.97 845 24.95 7.9 46.2 50 -1.8 28.8
10:15 1015 29.97 844 24.92 7.7 45.9 46 -3.1 26.4
10:20 1015 29.97 844 24.92 8.3 47 43 -3.4 25.9
10:25 1015 29.97 844 24.92 9.5 49.1 39 -3.6 25.5
10:30 1015 29.97 844 24.92 9.3 48.7 42 -2.8 27
10:35 1015 29.97 844 24.92 8.8 47.8 40 -4.1 24.7
10:40 1015 29.97 844 24.92 9.4 48.9 38 -4.4 24.1
10:45 1015 29.97 844 24.92 9.7 49.4 33 -5.8 21.5
10:50 1015 29.97 844 24.92 9.3 48.8 33 -6.2 20.9
10:55 1015 29.97 844 24.92 9.3 48.8 33 -6.1 21
11:00 1015 29.97 844 24.92 9.7 49.4 34 -5.4 22.3
11:05 1015 29.97 844 24.92 9.4 48.8 38 -4.1 24.7
11:10 1015 29.97 844 24.92 9.2 48.6 38 -4.3 24.3
11:15 1015 29.97 844 24.92 9 48.1 39 -4.3 24.2
11:20 1015 29.97 844 24.92 9.1 48.3 33 -6.2 20.8
11:25 1015 29.97 845 24.95 9.1 48.4 33 -6.4 20.5
11:30 1015 29.97 844 24.92 9.6 49.2 39 -3.6 25.6
11:35 1015 29.97 844 24.92 9.2 48.5 43 -2.8 27
11:40 1015 29.97 844 24.92 9.5 49.1 34 -5.6 21.9
11:45 1015 29.97 844 24.92 10.6 51.1 30 -6.2 20.8
11:50 1015 29.97 844 24.92 11 51.7 28 -6.6 20.1
11:55 1015 29.97 844 24.92 10.6 51 27 -7.9 17.8
12:00 1015 29.97 844 24.92 10.2 50.3 27 -7.9 17.9
12:05 1015 29.97 844 24.92 11 51.7 26 -7.8 17.9
12:10 1015 29.97 844 24.92 11.7 53.1 26 -7.4 18.7
12:15 1015 29.97 844 24.92 11.5 52.6 26 -7.4 18.7
12:20 1015 29.97 844 24.92 11.5 52.6 26 -7.2 19
12:25 1015 29.97 844 24.92 11.7 53 28 -6.3 20.6
12:30 1015 29.97 844 24.92 11.2 52.1 26 -7.5 18.5
12:35 1015 29.97 844 24.92 10.7 51.2 28 -7.2 19
12:40 1015 29.97 844 24.92 10.9 51.7 29 -6.5 20.2
12:45 1015 29.97 844 24.92 10.6 51.1 28 -7.1 19.2
12:50 1015 29.97 844 24.92 10.6 51 29 -6.6 20.2
12:55 1015 29.97 844 24.92 10.6 51 28 -7 19.4
13:00 1015 29.97 844 24.92 10.4 50.7 29 -6.9 19.5
13:05 1015 29.97 844 24.92 10.1 50.2 29 -7 19.4
13:10 1014 29.94 844 24.92 10.3 50.5 28 -7.6 18.3
13:15 1014 29.94 844 24.92 11.3 52.3 27 -7.1 19.2
13:20 1014 29.94 844 24.92 11.6 52.8 27 -6.9 19.6
13:25 1014 29.94 844 24.92 11.4 52.6 28 -6.3 20.6
13:30 1014 29.94 844 24.92 11.5 52.7 27 -6.9 19.6
13:35 1014 29.94 844 24.92 11.5 52.8 27 -6.6 20.2
13:40 1014 29.94 844 24.92 11.6 52.9 28 -6.4 20.4
13:45 1015 29.97 844 24.92 11.7 53 28 -6.1 21
13:50 1015 29.97 844 24.92 11 51.8 30 -6 21.2
13:55 1015 29.97 844 24.92 9.8 49.6 33 -5.6 22
14:00 1014 29.94 844 24.92 10 50.1 31 -6.2 20.9
14:05 1014 29.94 844 24.92 10.3 50.6 31 -6.2 20.9
14:10 1014 29.94 844 24.92 10.5 50.9 30 -6.5 20.3
14:15 1014 29.94 843 24.89 11 51.7 29 -6.5 20.2
14:20 1014 29.94 843 24.89 10.9 51.6 27 -7.2 19
14:25 1014 29.94 843 24.89 11.2 52.1 25 -8.1 17.5
14:30 1014 29.94 843 24.89 11.6 52.9 25 -7.6 18.3
14:35 1014 29.94 843 24.89 11.7 53.1 25 -7.4 18.6
14:40 1014 29.94 843 24.89 11.4 52.5 26 -7.3 18.9
14:45 1014 29.94 843 24.89 10.7 51.3 26 -7.9 17.8
14:50 1014 29.94 843 24.89 11 51.8 26 -8 17.7
14:55 1014 29.94 843 24.89 11.5 52.7 26 -7.1 19.2
15:00 1014 29.94 843 24.89 11.4 52.6 26 -7.4 18.7
15:05 1014 29.94 843 24.89 11.8 53.2 24 -8 17.6
15:10 1014 29.94 843 24.89 12.8 55 23 -8 17.5
15:15 1014 29.94 843 24.89 12.6 54.7 22 -8.4 16.8
15:20 1014 29.94 843 24.89 12.9 55.3 25 -6.7 19.9
15:25 1014 29.94 843 24.89 12.3 54.2 27 -5.9 21.4
15:30 1014 29.94 843 24.89 11.8 53.3 29 -5.8 21.6
15:35 1014 29.94 843 24.89 11.3 52.4 30 -5.6 21.9
15:40 1014 29.94 843 24.89 11 51.8 30 -5.7 21.7
15:45 1014 29.94 843 24.89 11.6 52.8 28 -6.2 20.8
15:50 1014 29.94 843 24.89 12 53.6 28 -6 21.1
15:55 1014 29.94 843 24.89 11.7 53.1 26 -7 19.4
16:00 1014 29.94 843 24.89 11.4 52.5 24 -8.5 16.7
16:05 1014 29.94 843 24.89 11.4 52.5 24 -8.4 16.9
16:10 1014 29.94 843 24.89 11.1 52 31 -5.2 22.7
16:15 1014 29.94 843 24.89 10.8 51.5 32 -5.2 22.7
16:20 1014 29.94 843 24.89 11.1 51.9 33 -4.6 23.8
16:25 1014 29.94 843 24.89 11.4 52.4 32 -4.8 23.3
16:30 1014 29.94 843 24.89 11.5 52.6 32 -4.8 23.4
16:35 1014 29.94 843 24.89 11.3 52.4 30 -5.4 22.3
16:40 1014 29.94 844 24.92 11.2 52.1 30 -5.6 21.9
16:45 1014 29.94 844 24.92 10.8 51.4 32 -5.4 22.2
16:50 1014 29.94 844 24.92 10.7 51.3 32 -5.4 22.3
16:55 1014 29.94 844 24.92 10.7 51.2 32 -5.4 22.3
17:00 1014 29.94 844 24.92 10.3 50.6 32 -5.6 22
17:05 1014 29.94 844 24.92 10.2 50.4 30 -6.5 20.2
17:10 1014 29.94 844 24.92 10.2 50.4 31 -6 21.2
17:15 1014 29.94 844 24.92 10.1 50.1 33 -5.6 22
17:20 1015 29.97 844 24.92 10 50 33 -5.5 22
17:25 1015 29.97 844 24.92 9.8 49.7 34 -5.4 22.2
17:30 1015 29.97 844 24.92 9.7 49.4 33 -5.8 21.5
17:35 1015 29.97 844 24.92 9.6 49.2 32 -6.4 20.5
17:40 1015 29.97 844 24.92 9.6 49.4 32 -6.1 21
17:45 1015 29.97 844 24.92 9.7 49.5 32 -6.2 20.8
17:50 1015 29.97 844 24.92 9.7 49.4 32 -6.2 20.9
17:55 1015 29.97 844 24.92 9.6 49.3 32 -6.2 20.8
18:00 1015 29.97 844 24.92 9.5 49.1 32 -6.2 20.9
18:05 1015 29.97 844 24.92 9.6 49.2 32 -6.2 20.9
18:10 1015 29.97 844 24.92 9.6 49.2 33 -6 21.2
18:15 1015 29.97 844 24.92 9.6 49.2 33 -5.9 21.3
18:20 1015 29.97 844 24.92 9.5 49.1 33 -6.1 21.1
18:25 1015 29.97 844 24.92 9.5 49 33 -6.2 20.8
18:30 1015 29.97 844 24.92 9.4 48.9 32 -6.3 20.6
18:35 1015 29.97 844 24.92 8.9 48.1 32 -6.7 19.9
18:40 1015 29.97 844 24.92 8.9 48 33 -6.5 20.3
18:45 1015 29.97 844 24.92 8.8 47.8 33 -6.6 20.2
18:50 1015 29.97 844 24.92 8.8 47.8 33 -6.6 20.2
18:55 1015 29.97 844 24.92 8.8 47.8 33 -6.5 20.3
19:00 1015 29.97 844 24.92 8.7 47.7 34 -6.4 20.4
19:05 1015 29.97 844 24.92 8.7 47.7 34 -6.4 20.5
19:10 1015 29.97 844 24.92 8.7 47.6 34 -6.3 20.6
19:15 1015 29.97 845 24.95 8.6 47.6 34 -6.2 20.8
19:20 1015 29.97 845 24.95 8.6 47.6 34 -6.3 20.7
19:25 1015 29.97 845 24.95 8.6 47.5 34 -6.2 20.8
19:30 1015 29.97 845 24.95 8.6 47.4 35 -6.2 20.9
19:35 1016 30 845 24.95 8.5 47.4 34 -6.4 20.5
19:40 1016 30 845 24.95 8.5 47.2 35 -6 21.1
19:45 1016 30 845 24.95 8.4 47.1 35 -6 21.1
19:50 1016 30 845 24.95 8.4 47 36 -5.8 21.5
19:55 1016 30 845 24.95 8.3 46.9 36 -5.8 21.5
20:00 1016 30 845 24.95 8.2 46.7 37 -5.6 21.9
20:05 1016 30 845 24.95 8.1 46.5 38 -5.4 22.2
20:10 1016 30 845 24.95 7.9 46.3 38 -5.4 22.2
20:15 1016 30 845 24.95 7.8 46.1 39 -5.4 22.3
20:20 1016 30 846 24.98 7.8 46.1 39 -5.3 22.4
20:25 1016 30 846 24.98 7.7 45.8 39 -5.3 22.4
20:30 1017 30.03 846 24.98 7.5 45.5 40 -5.2 22.6
20:35 1017 30.03 846 24.98 7.4 45.3 40 -5.5 22.1
20:40 1016 30 846 24.98 7.3 45.1 39 -5.6 21.9
20:45 1017 30.03 846 24.98 7.3 45.1 40 -5.5 22.2
20:50 1017 30.03 846 24.98 7.1 44.8 40 -5.4 22.2
20:55 1017 30.03 846 24.98 7 44.5 41 -5.3 22.5
21:00 1017 30.03 846 24.98 6.8 44.3 42 -5.1 22.8
21:05 1017 30.03 846 24.98 6.7 44.1 43 -5.1 22.9
21:10 1017 30.03 846 24.98 6.5 43.8 44 -5 23
21:15 1017 30.03 847 25.01 6.4 43.6 44 -4.8 23.3
21:20 1017 30.03 846 24.98 6.3 43.3 46 -4.6 23.8
21:25 1017 30.03 846 24.98 6.2 43.2 47 -4.4 24.1
21:30 1017 30.03 846 24.98 6.2 43.1 47 -4.2 24.4
21:35 1017 30.03 846 24.98 6.2 43.2 47 -4.3 24.3
21:40 1017 30.03 846 24.98 6.3 43.4 47 -4.2 24.5
21:45 1017 30.03 846 24.98 6.4 43.5 47 -4 24.7
21:50 1017 30.03 846 24.98 6.4 43.5 46 -4.3 24.3
21:55 1017 30.03 846 24.98 6.4 43.5 47 -4.1 24.6
22:00 1017 30.03 847 25.01 6.4 43.4 47 -4 24.7
22:05 1017 30.03 847 25.01 5.9 42.7 48 -4.2 24.5
22:10 1017 30.03 847 25.01 5.7 42.2 48 -4.5 23.9
22:15 1017 30.03 847 25.01 5.6 42 48 -4.5 23.9
22:20 1017 30.03 847 25.01 5.6 42.1 48 -4.6 23.7
22:25 1017 30.03 847 25.01 5.7 42.2 48 -4.6 23.8
22:30 1018 30.06 847 25.01 5.7 42.3 48 -4.5 23.9
22:35 1017 30.03 847 25.01 5.7 42.2 48 -4.4 24
22:40 1017 30.03 847 25.01 5.6 42.1 49 -4.4 24.1
22:45 1017 30.03 847 25.01 5.5 41.9 49 -4.3 24.3
22:50 1017 30.03 847 25.01 5.4 41.7 50 -4.3 24.3
22:55 1017 30.03 847 25.01 5.2 41.4 51 -4.2 24.5
23:00 1017 30.03 847 25.01 5.1 41.1 51 -4.1 24.6
23:05 1017 30.03 847 25.01 5 40.9 53 -3.9 25
23:10 1018 30.06 847 25.01 4.8 40.7 54 -3.8 25.1
23:15 1017 30.03 847 25.01 4.7 40.4 54 -3.8 25.2
23:20 1017 30.03 847 25.01 4.6 40.2 55 -3.7 25.3
23:25 1017 30.03 847 25.01 4.5 40.1 56 -3.6 25.5
23:30 1018 30.06 847 25.01 4.4 40 56 -3.5 25.7
23:35 1018 30.06 847 25.01 4.4 39.9 57 -3.4 25.8
23:40 1018 30.06 847 25.01 4.3 39.8 58 -3.2 26.2
23:45 1018 30.06 847 25.01 4.2 39.6 58 -3.3 26.1
23:50 1018 30.06 847 25.01 4.1 39.4 59 -3.2 26.2
23:55 1018 30.06 847 25.01 4.1 39.3 59 -3.2 26.2
24:00 1018 30.06 847 25.01 4.1 39.3 59 -3.2 26.3